createdAt,value
2024-04-26T00:00:44.932Z,8.5
2024-04-26T00:01:51.140Z,8.1
2024-04-26T00:02:57.206Z,8
2024-04-26T00:04:03.149Z,7.7
2024-04-26T00:05:09.783Z,8.39
2024-04-26T00:06:15.575Z,7.8
2024-04-26T00:07:20.987Z,8.2
2024-04-26T00:08:26.811Z,8
2024-04-26T00:09:33.384Z,8.6
2024-04-26T00:10:39.329Z,8.39
2024-04-26T00:11:45.552Z,7.9
2024-04-26T00:12:51.785Z,8.1
2024-04-26T00:13:57.947Z,8
2024-04-26T00:15:03.790Z,7.8
2024-04-26T00:16:10.256Z,8.39
2024-04-26T00:17:16.409Z,7.4
2024-04-26T00:19:28.796Z,7.6
2024-04-26T00:20:34.762Z,8
2024-04-26T00:21:40.001Z,9.39
2024-04-26T00:22:46.346Z,7.9
2024-04-26T00:23:52.460Z,7.9
2024-04-26T00:24:58.597Z,8.8
2024-04-26T00:26:04.814Z,8.2
2024-04-26T00:27:10.815Z,7.6
2024-04-26T00:28:16.810Z,7.8
2024-04-26T00:29:23.462Z,7.4
2024-04-26T00:30:29.458Z,7.6
2024-04-26T00:31:35.542Z,7.6
2024-04-26T00:32:41.702Z,8.3
2024-04-26T00:33:47.903Z,8.1
2024-04-26T00:34:53.933Z,7.9
2024-04-26T00:35:58.954Z,7.9
2024-04-26T00:37:05.355Z,8
2024-04-26T00:38:11.590Z,7.9
2024-04-26T00:39:17.692Z,8.3
2024-04-26T00:40:23.700Z,7.9
2024-04-26T00:41:29.904Z,8
2024-04-26T00:42:36.243Z,8.1
2024-04-26T00:43:42.411Z,7.9
2024-04-26T00:44:48.519Z,8.3
2024-04-26T00:45:54.362Z,7.7
2024-04-26T00:47:00.801Z,8
2024-04-26T00:48:07.120Z,7.8
2024-04-26T00:49:13.084Z,8.39
2024-04-26T00:50:18.484Z,7.8
2024-04-26T00:51:24.500Z,8
2024-04-26T00:52:30.672Z,8.3
2024-04-26T00:53:36.854Z,7.8
2024-04-26T00:54:42.782Z,8.2
2024-04-26T00:55:48.989Z,8.5
2024-04-26T00:56:55.310Z,7.8
2024-04-26T00:58:01.363Z,8.8
2024-04-26T00:59:07.661Z,7.8
2024-04-26T01:00:13.793Z,8
2024-04-26T01:01:19.719Z,7.9
2024-04-26T01:02:26.015Z,10.5
2024-04-26T01:03:32.262Z,7.8
2024-04-26T01:04:37.162Z,7.5
2024-04-26T01:05:43.355Z,7.7
2024-04-26T01:06:49.450Z,7.7
2024-04-26T01:09:01.942Z,9.3
2024-04-26T01:10:07.322Z,7.6
2024-04-26T01:11:13.098Z,9.2
2024-04-26T01:12:19.317Z,7.8
2024-04-26T01:13:25.406Z,8.2
2024-04-26T01:14:31.621Z,8.89
2024-04-26T01:15:37.820Z,8.3
2024-04-26T01:16:44.012Z,9.6
2024-04-26T01:17:50.080Z,8.39
2024-04-26T01:18:56.217Z,7.7
2024-04-26T01:20:02.847Z,8
2024-04-26T01:21:08.527Z,8.5
2024-04-26T01:22:14.758Z,8.39
2024-04-26T01:23:20.859Z,9.39
2024-04-26T01:25:32.216Z,8.1
2024-04-26T01:26:38.684Z,7.9
2024-04-26T01:27:44.517Z,8.6
2024-04-26T01:28:50.943Z,8.7
2024-04-26T01:29:56.954Z,8
2024-04-26T01:31:03.056Z,8.39
2024-04-26T01:32:09.511Z,7.9
2024-04-26T01:33:15.642Z,8.39
2024-04-26T01:34:21.477Z,8.8
2024-04-26T01:35:27.652Z,8
2024-04-26T01:36:33.914Z,8.89
2024-04-26T01:37:40.089Z,8.3
2024-04-26T01:38:45.368Z,8.39
2024-04-26T01:39:51.294Z,8.39
2024-04-26T01:42:03.631Z,7.9
2024-04-26T01:43:09.800Z,8.2
2024-04-26T01:44:15.949Z,8.3
2024-04-26T01:45:22.119Z,9.39
2024-04-26T01:46:28.295Z,8.3
2024-04-26T01:47:34.473Z,8.5
2024-04-26T01:48:40.589Z,8.39
2024-04-26T01:49:46.756Z,8.3
2024-04-26T01:50:52.942Z,8.1
2024-04-26T01:51:59.175Z,8.2
2024-04-26T01:53:04.260Z,8.7
2024-04-26T01:54:10.423Z,8.1
2024-04-26T01:55:16.588Z,7.6
2024-04-26T01:56:23.356Z,7.9
2024-04-26T01:57:29.094Z,7.6
2024-04-26T01:58:35.123Z,8
2024-04-26T01:59:41.225Z,8.3
2024-04-26T02:00:47.400Z,7.9
2024-04-26T02:01:53.550Z,7.5
2024-04-26T02:02:59.755Z,7.7
2024-04-26T02:04:05.853Z,8.39
2024-04-26T02:05:12.028Z,7.8
2024-04-26T02:06:18.484Z,8.2
2024-04-26T02:07:23.417Z,7.7
2024-04-26T02:08:29.524Z,7.5
2024-04-26T02:09:35.779Z,8.39
2024-04-26T02:10:41.879Z,8
2024-04-26T02:11:48.018Z,8.2
2024-04-26T02:12:54.263Z,8.3
2024-04-26T02:15:06.496Z,7.9
2024-04-26T02:16:12.785Z,7.7
2024-04-26T02:17:18.941Z,7.5
2024-04-26T02:18:25.008Z,8.3
2024-04-26T02:19:31.150Z,8
2024-04-26T02:20:37.296Z,8.6
2024-04-26T02:21:42.493Z,7.8
2024-04-26T02:22:48.628Z,7.5
2024-04-26T02:23:54.812Z,8.1
2024-04-26T02:25:00.983Z,8.3
2024-04-26T02:26:07.147Z,8.2
2024-04-26T02:27:13.291Z,8.2
2024-04-26T02:28:19.479Z,7.9
2024-04-26T02:29:25.657Z,7.9
2024-04-26T02:31:37.965Z,7.8
2024-04-26T02:32:44.101Z,8.39
2024-04-26T02:33:50.286Z,7.7
2024-04-26T02:34:56.431Z,7.5
2024-04-26T02:36:01.586Z,8.3
2024-04-26T02:37:07.891Z,8.1
2024-04-26T02:38:13.920Z,8.2
2024-04-26T02:39:20.146Z,8.2
2024-04-26T02:40:26.274Z,8.2
2024-04-26T02:41:32.416Z,8.3
2024-04-26T02:42:38.564Z,10.3
2024-04-26T02:43:44.793Z,8.3
2024-04-26T02:44:50.917Z,8.3
2024-04-26T02:45:57.055Z,7.9
2024-04-26T02:47:03.294Z,8
2024-04-26T02:48:09.382Z,9
2024-04-26T02:49:15.539Z,8.5
2024-04-26T02:50:20.713Z,8.1
2024-04-26T02:51:26.873Z,8.5
2024-04-26T02:52:33.039Z,8
2024-04-26T02:53:39.183Z,8.3
2024-04-26T02:54:45.447Z,8.1
2024-04-26T02:55:51.557Z,8
2024-04-26T02:56:57.717Z,8.3
2024-04-26T02:58:03.831Z,7.7
2024-04-26T02:59:10.022Z,8
2024-04-26T03:00:16.189Z,8.5
2024-04-26T03:01:22.316Z,8.2
2024-04-26T03:02:28.485Z,7.9
2024-04-26T03:03:34.711Z,9.7
2024-04-26T03:04:39.840Z,7.9
2024-04-26T03:05:45.977Z,8.3
2024-04-26T03:06:52.347Z,8.39
2024-04-26T03:07:58.346Z,8.3
2024-04-26T03:09:04.463Z,7.7
2024-04-26T03:10:10.624Z,9
2024-04-26T03:11:16.789Z,10.7
2024-04-26T03:12:22.968Z,8.1
2024-04-26T03:13:29.112Z,8.2
2024-04-26T03:14:35.268Z,8
2024-04-26T03:15:41.432Z,8.1
2024-04-26T03:16:47.598Z,8.3
2024-04-26T03:17:53.895Z,7.9
2024-04-26T03:18:59.178Z,7.9
2024-04-26T03:20:05.265Z,8.39
2024-04-26T03:21:11.327Z,7.7
2024-04-26T03:22:17.426Z,7.8
2024-04-26T03:23:23.596Z,8.1
2024-04-26T03:24:30.303Z,8.39
2024-04-26T03:25:35.937Z,7.9
2024-04-26T03:26:42.184Z,7.8
2024-04-26T03:27:48.336Z,8
2024-04-26T03:28:54.524Z,8.5
2024-04-26T03:30:00.807Z,8.39
2024-04-26T03:31:06.737Z,7.9
2024-04-26T03:32:12.855Z,8.5
2024-04-26T03:33:18.095Z,8.2
2024-04-26T03:34:24.344Z,8.39
2024-04-26T03:35:30.353Z,8.1
2024-04-26T03:37:42.823Z,8.3
2024-04-26T03:38:48.963Z,8.39
2024-04-26T03:39:55.076Z,9.2
2024-04-26T03:41:01.189Z,8.1
2024-04-26T03:42:07.318Z,8.8
2024-04-26T03:43:13.638Z,8.39
2024-04-26T03:44:19.811Z,8.2
2024-04-26T03:45:25.937Z,9.2
2024-04-26T03:46:32.165Z,7.8
2024-04-26T03:47:37.247Z,7.9
2024-04-26T03:48:43.365Z,8.3
2024-04-26T03:49:49.594Z,9.1
2024-04-26T03:50:55.665Z,7.8
2024-04-26T03:52:01.862Z,8
2024-04-26T03:53:08.081Z,7.8
2024-04-26T03:54:14.162Z,8.6
2024-04-26T03:55:20.277Z,7.8
2024-04-26T03:56:26.665Z,8.3
2024-04-26T03:57:32.657Z,7.5
2024-04-26T03:58:38.846Z,8
2024-04-26T03:59:45.046Z,8
2024-04-26T04:00:51.080Z,8.6
2024-04-26T04:01:56.366Z,8.8
2024-04-26T04:03:02.626Z,8.7
2024-04-26T04:04:08.607Z,8.2
2024-04-26T04:05:14.744Z,9.6
2024-04-26T04:06:21.034Z,8.3
2024-04-26T04:07:27.178Z,8
2024-04-26T04:08:33.236Z,8.5
2024-04-26T04:10:45.585Z,8.3
2024-04-26T04:11:51.760Z,7.9
2024-04-26T04:12:57.987Z,7.9
2024-04-26T04:14:04.096Z,8.5
2024-04-26T04:15:10.249Z,7.9
2024-04-26T04:16:15.600Z,8.1
2024-04-26T04:17:21.659Z,8.1
2024-04-26T04:18:27.892Z,8.2
2024-04-26T04:19:33.895Z,8.1
2024-04-26T04:20:40.140Z,8.1
2024-04-26T04:21:46.283Z,8.2
2024-04-26T04:22:52.344Z,8.2
2024-04-26T04:23:58.615Z,8
2024-04-26T04:25:04.670Z,7.8
2024-04-26T04:26:10.834Z,8
2024-04-26T04:27:17.121Z,8
2024-04-26T04:28:23.151Z,8.89
2024-04-26T04:29:29.312Z,8.39
2024-04-26T04:30:34.571Z,7.6
2024-04-26T04:31:40.698Z,8.39
2024-04-26T04:32:46.812Z,8.1
2024-04-26T04:33:52.986Z,7.8
2024-04-26T04:34:59.205Z,8.6
2024-04-26T04:36:05.291Z,8.1
2024-04-26T04:37:11.462Z,8.3
2024-04-26T04:38:17.650Z,8.5
2024-04-26T04:39:23.797Z,8.39
2024-04-26T04:40:29.931Z,8.2
2024-04-26T04:41:36.193Z,8
2024-04-26T04:42:42.264Z,8.5
2024-04-26T04:43:48.430Z,8.1
2024-04-26T04:44:53.607Z,8.39
2024-04-26T04:45:59.887Z,7.8
2024-04-26T04:47:05.960Z,8.1
2024-04-26T04:48:12.091Z,9.8
2024-04-26T04:49:18.443Z,8.1
2024-04-26T04:50:24.405Z,8.7
2024-04-26T04:51:29.594Z,8
2024-04-26T04:52:35.757Z,7.9
2024-04-26T04:53:41.909Z,7.9
2024-04-26T04:54:48.070Z,7.9
2024-04-26T04:55:54.265Z,8.3
2024-04-26T04:57:00.464Z,8.8
2024-04-26T04:58:06.673Z,8.3
2024-04-26T05:00:18.872Z,8.2
2024-04-26T05:01:25.057Z,8.2
2024-04-26T05:02:31.248Z,8.3
2024-04-26T05:03:37.360Z,7.9
2024-04-26T05:04:43.528Z,8.1
2024-04-26T05:05:48.685Z,8
2024-04-26T05:06:54.854Z,8.5
2024-04-26T05:08:01.105Z,8.1
2024-04-26T05:09:07.185Z,7.9
2024-04-26T05:10:13.415Z,7.9
2024-04-26T05:11:19.520Z,8.5
2024-04-26T05:12:25.755Z,7.8
2024-04-26T05:13:32.013Z,7.7
2024-04-26T05:14:37.972Z,8
2024-04-26T05:15:44.279Z,8.5
2024-04-26T05:16:50.355Z,8.5
2024-04-26T05:17:56.546Z,9.1
2024-04-26T05:19:02.748Z,8.3
2024-04-26T05:20:07.833Z,8.3
2024-04-26T05:21:13.976Z,8.5
2024-04-26T05:22:20.226Z,7.7
2024-04-26T05:23:26.317Z,8.3
2024-04-26T05:24:32.720Z,7.9
2024-04-26T05:25:38.622Z,8.3
2024-04-26T05:26:44.906Z,8.89
2024-04-26T05:27:51.119Z,8.8
2024-04-26T05:28:57.102Z,8.8
2024-04-26T05:30:03.279Z,8
2024-04-26T05:31:09.473Z,7.9
2024-04-26T05:33:21.765Z,8.1
2024-04-26T05:34:26.942Z,8.2
2024-04-26T05:35:33.178Z,8.3
2024-04-26T05:36:39.306Z,8.2
2024-04-26T05:37:45.552Z,8.2
2024-04-26T05:38:51.588Z,8.3
2024-04-26T05:39:57.989Z,8.7
2024-04-26T05:41:04.020Z,9.5
2024-04-26T05:42:10.111Z,9.7
2024-04-26T05:43:16.363Z,9.89
2024-04-26T05:44:22.371Z,8.7
2024-04-26T05:45:28.579Z,8.3
2024-04-26T05:46:34.709Z,10.2
2024-04-26T05:47:40.938Z,10.8
2024-04-26T05:49:52.261Z,16.4
2024-04-26T05:50:58.406Z,9.5
2024-04-26T05:52:04.580Z,9.8
2024-04-26T05:53:10.687Z,9.2
2024-04-26T05:54:16.833Z,9.89
2024-04-26T05:55:23.084Z,10.9
2024-04-26T05:56:29.198Z,10.2
2024-04-26T05:57:35.415Z,8.8
2024-04-26T05:58:41.531Z,14.2
2024-04-26T05:59:47.746Z,8.5
2024-04-26T06:00:53.810Z,9.7
2024-04-26T06:02:00.006Z,8.8
2024-04-26T06:03:05.268Z,11.7
2024-04-26T06:04:11.428Z,8.2
2024-04-26T06:05:17.471Z,10
2024-04-26T06:06:23.669Z,10.2
2024-04-26T06:07:29.797Z,9.1
2024-04-26T06:08:35.956Z,8.89
2024-04-26T06:09:42.160Z,12
2024-04-26T06:10:48.485Z,10.3
2024-04-26T06:11:54.430Z,8.39
2024-04-26T06:13:00.610Z,8.7
2024-04-26T06:14:06.803Z,8.89
2024-04-26T06:15:12.939Z,13.8
2024-04-26T06:16:19.097Z,9.8
2024-04-26T06:17:24.455Z,8.5
2024-04-26T06:18:30.485Z,9.8
2024-04-26T06:19:36.757Z,20.6
2024-04-26T06:20:42.774Z,13.8
2024-04-26T06:22:55.195Z,12.3
2024-04-26T06:24:01.284Z,13.6
2024-04-26T06:25:07.511Z,9.8
2024-04-26T06:26:13.626Z,12.2
2024-04-26T06:27:19.813Z,11.7
2024-04-26T06:28:25.914Z,14.5
2024-04-26T06:29:32.211Z,10.2
2024-04-26T06:30:38.222Z,17.6
2024-04-26T06:31:43.469Z,9.7
2024-04-26T06:32:49.632Z,10.2
2024-04-26T06:33:56.039Z,11.6
2024-04-26T06:35:01.974Z,17.6
2024-04-26T06:36:08.043Z,13.6
2024-04-26T06:37:14.327Z,13.8
2024-04-26T06:39:26.522Z,11.6
2024-04-26T06:40:32.724Z,11.6
2024-04-26T06:41:39.009Z,12.1
2024-04-26T06:42:44.973Z,15.5
2024-04-26T06:43:51.170Z,14.7
2024-04-26T06:44:57.328Z,12.2
2024-04-26T06:46:02.888Z,12.2
2024-04-26T06:47:08.855Z,10
2024-04-26T06:48:15.079Z,15.5
2024-04-26T06:49:21.276Z,17.5
2024-04-26T06:50:27.152Z,9.3
2024-04-26T06:51:33.302Z,11
2024-04-26T06:52:39.463Z,18.7
2024-04-26T06:53:45.682Z,14.5
2024-04-26T06:55:58.039Z,13.3
2024-04-26T06:57:04.444Z,10.8
2024-04-26T06:58:10.314Z,13.4
2024-04-26T06:59:16.721Z,13.9
2024-04-26T07:00:21.805Z,12.6
2024-04-26T07:01:28.123Z,14.3
2024-04-26T07:02:34.228Z,9.3
2024-04-26T07:03:40.144Z,11.2
2024-04-26T07:04:46.288Z,9.6
2024-04-26T07:05:52.534Z,14
2024-04-26T07:06:58.579Z,9.3
2024-04-26T07:08:04.949Z,9.89
2024-04-26T07:09:11.067Z,17.29
2024-04-26T07:10:17.057Z,14.9
2024-04-26T07:12:29.597Z,15.1
2024-04-26T07:13:35.526Z,12.5
2024-04-26T07:14:40.796Z,13.9
2024-04-26T07:15:47.238Z,15.2
2024-04-26T07:16:53.302Z,13.3
2024-04-26T07:17:59.570Z,12.6
2024-04-26T07:19:05.803Z,16.6
2024-04-26T07:20:11.988Z,9.7
2024-04-26T07:21:17.956Z,12.4
2024-04-26T07:22:24.227Z,21.4
2024-04-26T07:23:30.026Z,17
2024-04-26T07:24:36.373Z,16
2024-04-26T07:25:42.317Z,9.5
2024-04-26T07:26:48.668Z,15.8
2024-04-26T07:29:00.812Z,10.8
2024-04-26T07:30:06.251Z,13.5
2024-04-26T07:31:12.374Z,14.7
2024-04-26T07:32:18.461Z,11
2024-04-26T07:33:24.755Z,11.7
2024-04-26T07:34:30.827Z,10.5
2024-04-26T07:35:36.788Z,11.1
2024-04-26T07:36:42.954Z,11.6
2024-04-26T07:37:49.297Z,11.7
2024-04-26T07:38:55.279Z,12.6
2024-04-26T07:40:01.426Z,12.1
2024-04-26T07:41:07.700Z,16.79
2024-04-26T07:42:13.775Z,12.8
2024-04-26T07:43:19.920Z,12.6
2024-04-26T07:45:31.310Z,11.7
2024-04-26T07:46:37.436Z,14.2
2024-04-26T07:47:43.801Z,16.4
2024-04-26T07:48:49.935Z,18.9
2024-04-26T07:49:55.907Z,13.4
2024-04-26T07:51:02.079Z,16.2
2024-04-26T07:52:08.262Z,15.2
2024-04-26T07:53:14.581Z,11.4
2024-04-26T07:54:20.637Z,14.8
2024-04-26T07:55:26.857Z,15.2
2024-04-26T07:56:33.060Z,12.4
2024-04-26T07:57:39.300Z,12.1
2024-04-26T07:58:44.375Z,10.9
2024-04-26T07:59:50.380Z,12.2
2024-04-26T08:02:02.903Z,10.6
2024-04-26T08:03:09.162Z,12.6
2024-04-26T08:04:15.159Z,10.4
2024-04-26T08:05:21.159Z,13.6
2024-04-26T08:06:27.448Z,12.4
2024-04-26T08:07:33.591Z,13.6
2024-04-26T08:08:39.732Z,10.9
2024-04-26T08:09:45.819Z,13.9
2024-04-26T08:10:52.005Z,10.7
2024-04-26T08:11:58.166Z,12.5
2024-04-26T08:13:03.321Z,10.9
2024-04-26T08:14:09.518Z,10.1
2024-04-26T08:15:15.742Z,15.9
2024-04-26T08:16:21.879Z,10.9
2024-04-26T08:17:28.008Z,10.8
2024-04-26T08:18:34.128Z,12.8
2024-04-26T08:19:40.319Z,12.4
2024-04-26T08:20:46.441Z,11.4
2024-04-26T08:21:52.717Z,11
2024-04-26T08:22:58.747Z,10.4
2024-04-26T08:24:04.987Z,12.2
2024-04-26T08:25:11.186Z,11.2
2024-04-26T08:26:17.300Z,10.6
2024-04-26T08:27:22.444Z,13.1
2024-04-26T08:28:28.641Z,11.9
2024-04-26T08:29:34.771Z,12.2
2024-04-26T08:30:41.004Z,11
2024-04-26T08:31:47.350Z,11.2
2024-04-26T08:32:52.511Z,12.7
2024-04-26T08:33:58.436Z,11.9
2024-04-26T08:35:04.744Z,14.3
2024-04-26T08:36:10.975Z,15.7
2024-04-26T08:37:17.255Z,15.4
2024-04-26T08:38:23.090Z,10.9
2024-04-26T08:39:29.208Z,11.3
2024-04-26T08:40:35.510Z,13.4
2024-04-26T08:41:41.731Z,12.1
2024-04-26T08:42:47.762Z,13.6
2024-04-26T08:43:54.214Z,12.7
2024-04-26T08:45:00.169Z,15.3
2024-04-26T08:46:06.606Z,10.7
2024-04-26T08:47:11.695Z,12.2
2024-04-26T08:48:17.540Z,10.7
2024-04-26T08:49:23.678Z,14
2024-04-26T08:50:29.930Z,12.5
2024-04-26T08:51:36.116Z,14.7
2024-04-26T08:52:42.230Z,12
2024-04-26T08:53:48.370Z,11.6
2024-04-26T08:54:54.515Z,12
2024-04-26T08:56:00.643Z,16.7
2024-04-26T08:57:06.802Z,12.1
2024-04-26T08:58:13.004Z,11
2024-04-26T08:59:19.164Z,13.8
2024-04-26T09:00:25.321Z,11.6
2024-04-26T09:01:30.592Z,11.4
2024-04-26T09:02:36.645Z,11.2
2024-04-26T09:03:42.853Z,12.2
2024-04-26T09:04:48.987Z,11.6
2024-04-26T09:05:55.180Z,13.4
2024-04-26T09:08:07.533Z,12.1
2024-04-26T09:09:13.737Z,11.6
2024-04-26T09:10:19.768Z,13.5
2024-04-26T09:11:25.937Z,9.7
2024-04-26T09:12:32.258Z,13.3
2024-04-26T09:13:38.237Z,11.7
2024-04-26T09:14:44.401Z,13.7
2024-04-26T09:15:49.599Z,8.7
2024-04-26T09:16:55.785Z,10
2024-04-26T09:18:01.925Z,10.6
2024-04-26T09:19:08.057Z,13.8
2024-04-26T09:20:14.254Z,9.3
2024-04-26T09:21:20.406Z,10.5
2024-04-26T09:22:26.565Z,9.39
2024-04-26T09:24:38.885Z,9.39
2024-04-26T09:25:45.057Z,8.7
2024-04-26T09:26:51.239Z,9.8
2024-04-26T09:27:57.551Z,10.8
2024-04-26T09:29:03.714Z,9.5
2024-04-26T09:30:08.844Z,11.7
2024-04-26T09:31:14.945Z,10
2024-04-26T09:32:21.010Z,11.7
2024-04-26T09:33:27.293Z,10.5
2024-04-26T09:34:33.379Z,11.4
2024-04-26T09:35:39.499Z,10.9
2024-04-26T09:36:45.717Z,11.7
2024-04-26T09:37:51.805Z,10.9
2024-04-26T09:38:58.027Z,9.5
2024-04-26T09:41:10.328Z,14.9
2024-04-26T09:42:16.488Z,10.5
2024-04-26T09:43:22.722Z,12.8
2024-04-26T09:44:27.799Z,9.89
2024-04-26T09:45:34.040Z,11.6
2024-04-26T09:46:40.219Z,11.6
2024-04-26T09:47:46.445Z,9.89
2024-04-26T09:48:52.458Z,10.2
2024-04-26T09:49:58.610Z,8.7
2024-04-26T09:51:05.023Z,12.4
2024-04-26T09:52:10.932Z,13.4
2024-04-26T09:53:17.180Z,8.8
2024-04-26T09:54:23.338Z,13.7
2024-04-26T09:55:29.425Z,12.4
2024-04-26T09:57:41.809Z,13.1
2024-04-26T09:58:47.085Z,11.2
2024-04-26T09:59:53.100Z,8.6
2024-04-26T10:00:59.247Z,10.2
2024-04-26T10:02:05.476Z,11.3
2024-04-26T10:03:11.584Z,9.89
2024-04-26T10:04:17.825Z,11.1
2024-04-26T10:05:23.874Z,10
2024-04-26T10:06:30.056Z,9.5
2024-04-26T10:07:36.216Z,13
2024-04-26T10:08:42.371Z,10.1
2024-04-26T10:09:48.545Z,9.8
2024-04-26T10:10:54.670Z,11.4
2024-04-26T10:12:00.976Z,11.8
2024-04-26T10:14:12.500Z,9.2
2024-04-26T10:15:18.647Z,9.6
2024-04-26T10:16:24.713Z,10.1
2024-04-26T10:17:30.965Z,11.6
2024-04-26T10:18:36.964Z,11.8
2024-04-26T10:19:43.018Z,9.3
2024-04-26T10:21:55.459Z,10.5
2024-04-26T10:23:01.736Z,9.5
2024-04-26T10:24:07.639Z,12.8
2024-04-26T10:25:13.817Z,9
2024-04-26T10:26:20.165Z,12.7
2024-04-26T10:27:25.391Z,10.4
2024-04-26T10:28:31.478Z,9.8
2024-04-26T10:30:43.697Z,9.7
2024-04-26T10:31:48.853Z,9.39
2024-04-26T10:32:54.096Z,12.4
2024-04-26T10:34:00.146Z,10.8
2024-04-26T10:35:06.429Z,9.8
2024-04-26T10:36:12.593Z,10.4
2024-04-26T10:37:18.690Z,9.5
2024-04-26T10:38:24.904Z,8.89
2024-04-26T10:39:31.015Z,9.3
2024-04-26T10:40:37.499Z,10.6
2024-04-26T10:41:43.338Z,8.8
2024-04-26T10:42:48.577Z,11.1
2024-04-26T10:43:53.870Z,9.39
2024-04-26T10:44:59.908Z,10.3
2024-04-26T10:46:06.070Z,10.1
2024-04-26T10:47:12.656Z,9.3
2024-04-26T10:48:18.431Z,10.4
2024-04-26T10:49:24.450Z,9.7
2024-04-26T10:50:30.612Z,12.7
2024-04-26T10:51:36.765Z,9.89
2024-04-26T10:52:42.910Z,11.1
2024-04-26T10:53:49.125Z,9.5
2024-04-26T10:54:55.393Z,9.2
2024-04-26T10:56:01.447Z,10
2024-04-26T10:57:07.713Z,9.89
2024-04-26T10:58:12.867Z,10.2
2024-04-26T10:59:18.933Z,9.89
2024-04-26T11:01:31.236Z,9.39
2024-04-26T11:03:43.589Z,10.2
2024-04-26T11:04:48.822Z,9.8
2024-04-26T11:05:53.898Z,10.2
2024-04-26T11:07:00.072Z,9.5
2024-04-26T11:08:06.285Z,9.7
2024-04-26T11:09:12.438Z,11.6
2024-04-26T11:10:18.608Z,8.2
2024-04-26T11:11:24.702Z,10.8
2024-04-26T11:12:30.873Z,9.5
2024-04-26T11:13:37.107Z,10.3
2024-04-26T11:14:43.245Z,8.7
2024-04-26T11:15:48.427Z,9.1
2024-04-26T11:16:53.679Z,10.3
2024-04-26T11:17:59.726Z,8.8
2024-04-26T11:20:12.056Z,10.4
2024-04-26T11:21:18.219Z,8.89
2024-04-26T11:22:24.432Z,10.3
2024-04-26T11:23:30.536Z,9.8
2024-04-26T11:24:36.671Z,9.2
2024-04-26T11:25:42.869Z,8.5
2024-04-26T11:26:49.002Z,9.3
2024-04-26T11:27:55.184Z,10.5
2024-04-26T11:29:01.342Z,8.8
2024-04-26T11:30:07.494Z,10.2
2024-04-26T11:31:12.660Z,9.1
2024-04-26T11:32:18.849Z,12.5
2024-04-26T11:33:25.016Z,8.89
2024-04-26T11:34:31.173Z,9
2024-04-26T11:35:37.413Z,8.7
2024-04-26T11:36:43.712Z,10.6
2024-04-26T11:37:49.902Z,8.8
2024-04-26T11:38:55.976Z,9.39
2024-04-26T11:40:02.023Z,10.9
2024-04-26T11:41:08.201Z,9
2024-04-26T11:42:14.354Z,8.7
2024-04-26T11:43:20.585Z,10.1
2024-04-26T11:44:26.635Z,8.89
2024-04-26T11:45:32.186Z,9.3
2024-04-26T11:46:37.980Z,11.3
2024-04-26T11:47:44.189Z,9.7
2024-04-26T11:48:50.267Z,9.7
2024-04-26T11:49:56.632Z,10
2024-04-26T11:51:02.586Z,8.7
2024-04-26T11:53:14.918Z,9.7
2024-04-26T11:54:21.061Z,9.3
2024-04-26T11:55:27.259Z,8.7
2024-04-26T11:56:33.407Z,8.39
2024-04-26T11:57:39.568Z,8.6
2024-04-26T11:58:45.740Z,9.39
2024-04-26T11:59:50.956Z,7.9
2024-04-26T12:00:57.089Z,9.5
2024-04-26T12:02:03.230Z,9.3
2024-04-26T12:03:09.380Z,12.1
2024-04-26T12:04:15.588Z,9.39
2024-04-26T12:05:21.702Z,11.5
2024-04-26T12:06:27.896Z,8.8
2024-04-26T12:07:34.084Z,10.3
2024-04-26T12:09:46.345Z,9.39
2024-04-26T12:10:52.524Z,8.3
2024-04-26T12:11:58.676Z,9.1
2024-04-26T12:13:04.870Z,9.89
2024-04-26T12:14:10.128Z,8.6
2024-04-26T12:15:16.196Z,9.39
2024-04-26T12:16:22.342Z,10.7
2024-04-26T12:17:28.494Z,9.2
2024-04-26T12:18:34.675Z,10.3
2024-04-26T12:19:40.793Z,8.7
2024-04-26T12:20:47.018Z,9.8
2024-04-26T12:21:53.164Z,8.7
2024-04-26T12:24:05.474Z,9
2024-04-26T12:25:11.734Z,9.5
2024-04-26T12:26:17.776Z,9.3
2024-04-26T12:27:24.091Z,8.89
2024-04-26T12:28:29.202Z,9.39
2024-04-26T12:29:35.322Z,11.5
2024-04-26T12:30:41.490Z,9.8
2024-04-26T12:31:47.599Z,9
2024-04-26T12:32:53.776Z,9.89
2024-04-26T12:33:59.936Z,9.1
2024-04-26T12:35:06.350Z,9.8
2024-04-26T12:36:12.250Z,9.6
2024-04-26T12:37:18.399Z,8.2
2024-04-26T12:38:24.791Z,9.39
2024-04-26T12:39:30.718Z,8.39
2024-04-26T12:40:36.911Z,9.8
2024-04-26T12:41:43.151Z,8.7
2024-04-26T12:42:48.221Z,8.5
2024-04-26T12:43:54.468Z,9.1
2024-04-26T12:45:00.549Z,8.39
2024-04-26T12:47:12.873Z,8.39
2024-04-26T12:48:19.034Z,7.9
2024-04-26T12:49:25.179Z,8.89
2024-04-26T12:50:31.337Z,8.3
2024-04-26T12:51:37.516Z,9.2
2024-04-26T12:52:43.783Z,11
2024-04-26T12:53:49.882Z,8.3
2024-04-26T12:54:55.978Z,8.2
2024-04-26T12:56:02.419Z,8.39
2024-04-26T12:57:07.345Z,8.2
2024-04-26T12:59:19.662Z,8.1
2024-04-26T13:00:25.830Z,8.8
2024-04-26T13:01:31.965Z,9.39
2024-04-26T13:02:38.134Z,9.39
2024-04-26T13:03:44.325Z,8.39
2024-04-26T13:04:50.492Z,8.8
2024-04-26T13:05:56.620Z,8.8
2024-04-26T13:07:02.845Z,8.6
2024-04-26T13:08:09.040Z,8.6
2024-04-26T13:09:15.086Z,9.3
2024-04-26T13:10:21.289Z,9
2024-04-26T13:11:26.447Z,8.6
2024-04-26T13:12:32.670Z,9.3
2024-04-26T13:13:39.002Z,9.39
2024-04-26T13:14:44.925Z,8.1
2024-04-26T13:16:57.328Z,8.2
2024-04-26T13:18:03.444Z,8.7
2024-04-26T13:19:09.625Z,8.3
2024-04-26T13:20:15.769Z,8.8
2024-04-26T13:21:22.034Z,8.6
2024-04-26T13:22:28.194Z,8.7
2024-04-26T13:23:34.251Z,8.1
2024-04-26T13:24:40.387Z,8.6
2024-04-26T13:25:45.579Z,8.5
2024-04-26T13:26:51.728Z,8.3
2024-04-26T13:27:57.941Z,8.39
2024-04-26T13:29:04.153Z,9.7
2024-04-26T13:32:22.559Z,9.8
2024-04-26T13:33:27.935Z,8.39
2024-04-26T13:34:32.874Z,8.5
2024-04-26T13:35:39.052Z,10
2024-04-26T13:36:45.228Z,8.89
2024-04-26T13:37:51.404Z,7.9
2024-04-26T13:38:57.546Z,9
2024-04-26T13:40:03.684Z,11.7
2024-04-26T13:41:09.837Z,9.39
2024-04-26T13:42:16.103Z,8.3
2024-04-26T13:43:22.200Z,9
2024-04-26T13:44:27.348Z,9.2
2024-04-26T13:45:32.575Z,9.2
2024-04-26T13:46:38.700Z,7.8
2024-04-26T13:48:51.098Z,9.6
2024-04-26T13:49:57.267Z,9.1
2024-04-26T13:51:03.386Z,8.5
2024-04-26T13:52:09.648Z,9.7
2024-04-26T13:53:15.665Z,8.1
2024-04-26T13:54:21.824Z,7.8
2024-04-26T13:55:27.980Z,9
2024-04-26T13:56:34.304Z,8.6
2024-04-26T13:57:40.378Z,8.39
2024-04-26T13:58:46.517Z,8.2
2024-04-26T13:59:51.681Z,8.1
2024-04-26T14:00:57.845Z,9.2
2024-04-26T14:02:04.001Z,8.3
2024-04-26T14:03:10.162Z,8.3
2024-04-26T14:05:22.754Z,8.39
2024-04-26T14:06:27.907Z,8.1
2024-04-26T14:07:33.237Z,8.1
2024-04-26T14:08:38.993Z,9.3
2024-04-26T14:09:45.278Z,9.3
2024-04-26T14:10:51.462Z,7.9
2024-04-26T14:11:57.559Z,8
2024-04-26T14:13:03.963Z,8.2
2024-04-26T14:14:10.026Z,7.9
2024-04-26T14:15:16.179Z,8.6
2024-04-26T14:16:22.192Z,8.2
2024-04-26T14:17:27.570Z,7.9
2024-04-26T14:18:32.514Z,7.8
2024-04-26T14:19:38.802Z,8.2
2024-04-26T14:20:44.958Z,7.7
2024-04-26T14:21:50.997Z,7.5
2024-04-26T14:22:57.232Z,8
2024-04-26T14:24:03.463Z,8.6
2024-04-26T14:25:09.419Z,7.6
2024-04-26T14:26:15.620Z,9
2024-04-26T14:27:21.819Z,8
2024-04-26T14:28:28.115Z,8
2024-04-26T14:29:34.092Z,7.9
2024-04-26T14:30:40.412Z,7.5
2024-04-26T14:31:46.440Z,7.8
2024-04-26T14:32:51.552Z,7.8
2024-04-26T14:33:58.052Z,7.4
2024-04-26T14:35:04.042Z,7.9
2024-04-26T14:36:10.044Z,7.5
2024-04-26T14:37:16.389Z,7.6
2024-04-26T14:38:22.518Z,7.8
2024-04-26T14:40:34.724Z,7.9
2024-04-26T14:41:40.969Z,7.7
2024-04-26T14:42:47.049Z,7.5
2024-04-26T14:43:53.168Z,7.3
2024-04-26T14:44:59.415Z,7.3
2024-04-26T14:46:05.632Z,7.2
2024-04-26T14:47:10.771Z,7.2
2024-04-26T14:48:17.158Z,8
2024-04-26T14:49:23.022Z,8
2024-04-26T14:50:29.193Z,8.2
2024-04-26T14:51:35.421Z,8.1
2024-04-26T14:52:41.631Z,8.39
2024-04-26T14:53:47.965Z,7.5
2024-04-26T14:54:53.931Z,7.9
2024-04-26T14:55:59.970Z,7.4
2024-04-26T14:57:06.188Z,7.6
2024-04-26T14:58:12.353Z,7.7
2024-04-26T14:59:18.516Z,7.3
2024-04-26T15:01:30.863Z,7.7
2024-04-26T15:02:36.034Z,7.2
2024-04-26T15:03:42.146Z,7.9
2024-04-26T15:04:48.398Z,7.5
2024-04-26T15:05:54.545Z,7.3
2024-04-26T15:07:00.755Z,7.6
2024-04-26T15:08:06.864Z,7.2
2024-04-26T15:09:12.950Z,7.1
2024-04-26T15:11:25.311Z,7.2
2024-04-26T15:12:31.413Z,7.5
2024-04-26T15:13:37.650Z,7.6
2024-04-26T15:14:43.730Z,7.6
2024-04-26T15:15:50.031Z,6.9
2024-04-26T15:16:55.154Z,6.9
2024-04-26T15:18:01.255Z,6.8
2024-04-26T15:19:07.615Z,7.3
2024-04-26T15:20:13.558Z,7
2024-04-26T15:21:19.718Z,7.2
2024-04-26T15:22:26.095Z,7.5
2024-04-26T15:23:32.261Z,7.4
2024-04-26T15:24:38.278Z,7.4
2024-04-26T15:25:44.394Z,7.1
2024-04-26T15:26:50.887Z,7.9
2024-04-26T15:27:56.710Z,7.3
2024-04-26T15:29:03.099Z,7
2024-04-26T15:30:09.049Z,7.4
2024-04-26T15:31:14.208Z,7.2
2024-04-26T15:32:20.395Z,7.1
2024-04-26T15:33:26.659Z,7.3
2024-04-26T15:34:32.717Z,6.9
2024-04-26T15:35:39.008Z,7.6
2024-04-26T15:36:45.109Z,7
2024-04-26T15:37:51.209Z,7.1
2024-04-26T15:38:57.385Z,7.5
2024-04-26T15:40:03.509Z,7.2
2024-04-26T15:41:09.668Z,7.4
2024-04-26T15:42:15.896Z,7.5
2024-04-26T15:43:22.158Z,7
2024-04-26T15:44:28.206Z,7.8
2024-04-26T15:45:33.334Z,7
2024-04-26T15:46:39.665Z,7.5
2024-04-26T15:47:45.668Z,7.6
2024-04-26T15:48:51.859Z,7.5